Sydney River, Canada
Current Conditions -  °F | °C
As of 3:00 AM on Saturday 20 Dec 2014 (Local Time) from CYQY Reporting Station
Snow Showers Snow Showers  
Wind Chill: 24°   Ceiling: 900
Heat Index: 34°   Visibility: 6mi
Dew Point: 30°   Wind: 16mph
Humidity: 87%   Direction: 20°NNE
Pressure: 29.94"   Gusts: 28mph
Location:  46.12°N, 60.22°W
Report Text: CYQY 200700Z 02014G24KT 6SM -SHSN BKN009 OVC034 01/M01 A2994 RMK ST5SC3 SLP140
Loading
Personal Weather Stations






























Interactive Weather Map New forecast layout! Learn more

10-Day Weather Forecast

Advertisements
Track Severe Weather on mobile